sensor_id;sensor_type;location;lat;lon;timestamp;pressure;altitude;pressure_sealevel;temperature;humidity
54439;BME280;40347;53.848;27.498;2023-01-15T00:01:17;1013.9;;;5;71.2
54439;BME280;40347;53.848;27.498;2023-01-15T00:06:13;1013.9;;;5;71.2
54439;BME280;40347;53.848;27.498;2023-01-15T00:11:03;1013.8;;;4.9;71.2
54439;BME280;40347;53.848;27.498;2023-01-15T00:16:03;1013.7;;;4.9;71.3
54439;BME280;40347;53.848;27.498;2023-01-15T00:21:15;1013.7;;;5;71.3
54439;BME280;40347;53.848;27.498;2023-01-15T00:26:03;1013.6;;;4.9;71.3
54439;BME280;40347;53.848;27.498;2023-01-15T00:31:15;1013.6;;;4.9;71.3
54439;BME280;40347;53.848;27.498;2023-01-15T00:36:25;1013.6;;;5;71.3
54439;BME280;40347;53.848;27.498;2023-01-15T00:41:23;1013.6;;;5;71.2
54439;BME280;40347;53.848;27.498;2023-01-15T00:46:13;1013.7;;;5;71.3
54439;BME280;40347;53.848;27.498;2023-01-15T00:51:13;1013.6;;;4.9;71.3
54439;BME280;40347;53.848;27.498;2023-01-15T00:56:03;1013.5;;;4.9;71.5
54439;BME280;40347;53.848;27.498;2023-01-15T01:01:03;1013.6;;;4.9;71.6
54439;BME280;40347;53.848;27.498;2023-01-15T01:06:03;1013.5;;;4.9;71.7
54439;BME280;40347;53.848;27.498;2023-01-15T01:11:16;1013.4;;;4.8;71.6
54439;BME280;40347;53.848;27.498;2023-01-15T01:16:26;1013.3;;;4.7;71.7
54439;BME280;40347;53.848;27.498;2023-01-15T01:21:11;1013.3;;;4.7;71.7
54439;BME280;40347;53.848;27.498;2023-01-15T01:26:37;1013.3;;;4.5;71.9
54439;BME280;40347;53.848;27.498;2023-01-15T01:31:03;1013.3;;;4.5;72.1
54439;BME280;40347;53.848;27.498;2023-01-15T01:36:15;1013.1;;;4.5;72.3
54439;BME280;40347;53.848;27.498;2023-01-15T01:41:11;1013;;;4.5;72.4
54439;BME280;40347;53.848;27.498;2023-01-15T01:46:25;1013;;;4.6;72.2
54439;BME280;40347;53.848;27.498;2023-01-15T01:51:03;1012.9;;;4.6;72.1
54439;BME280;40347;53.848;27.498;2023-01-15T01:56:11;1012.9;;;4.6;72.1
54439;BME280;40347;53.848;27.498;2023-01-15T02:01:15;1012.8;;;4.6;72.1
54439;BME280;40347;53.848;27.498;2023-01-15T02:06:11;1012.8;;;4.6;72
54439;BME280;40347;53.848;27.498;2023-01-15T02:11:03;1012.7;;;4.6;72.1
54439;BME280;40347;53.848;27.498;2023-01-15T02:16:06;1012.5;;;4.6;72.2
54439;BME280;40347;53.848;27.498;2023-01-15T02:21:04;1012.5;;;4.7;72.3
54439;BME280;40347;53.848;27.498;2023-01-15T02:26:07;1012.5;;;4.6;72.2
54439;BME280;40347;53.848;27.498;2023-01-15T02:31:24;1012.4;;;4.6;72.3
54439;BME280;40347;53.848;27.498;2023-01-15T02:36:03;1012.3;;;4.6;72.2
54439;BME280;40347;53.848;27.498;2023-01-15T02:41:11;1012.2;;;4.6;72.2
54439;BME280;40347;53.848;27.498;2023-01-15T02:46:13;1012.2;;;4.4;72.1
54439;BME280;40347;53.848;27.498;2023-01-15T02:51:05;1012.2;;;4.5;72.4
54439;BME280;40347;53.848;27.498;2023-01-15T02:56:28;1012.1;;;4.5;72.4
54439;BME280;40347;53.848;27.498;2023-01-15T03:01:04;1012;;;4.5;72.3
54439;BME280;40347;53.848;27.498;2023-01-15T03:06:26;1011.9;;;4.5;72.2
54439;BME280;40347;53.848;27.498;2023-01-15T03:11:13;1011.9;;;4.5;72.1
54439;BME280;40347;53.848;27.498;2023-01-15T03:16:13;1011.9;;;4.4;72.1
54439;BME280;40347;53.848;27.498;2023-01-15T03:21:14;1011.9;;;4.4;72.2
54439;BME280;40347;53.848;27.498;2023-01-15T03:26:03;1011.9;;;4.4;72.4
54439;BME280;40347;53.848;27.498;2023-01-15T03:31:03;1011.9;;;4.4;72.2
54439;BME280;40347;53.848;27.498;2023-01-15T03:36:11;1011.9;;;4.3;72.1
54439;BME280;40347;53.848;27.498;2023-01-15T03:41:06;1011.9;;;4.3;72.1
54439;BME280;40347;53.848;27.498;2023-01-15T03:46:14;1011.9;;;4.2;72.2
54439;BME280;40347;53.848;27.498;2023-01-15T03:51:04;1011.9;;;4.3;72.2
54439;BME280;40347;53.848;27.498;2023-01-15T03:56:29;1011.9;;;4.3;72.1
54439;BME280;40347;53.848;27.498;2023-01-15T04:01:14;1011.9;;;4.2;72
54439;BME280;40347;53.848;27.498;2023-01-15T04:06:03;1011.8;;;4.2;72
54439;BME280;40347;53.848;27.498;2023-01-15T04:11:35;1011.7;;;4.2;72.2
54439;BME280;40347;53.848;27.498;2023-01-15T04:16:03;1011.7;;;4.3;72.1
54439;BME280;40347;53.848;27.498;2023-01-15T04:21:03;1011.5;;;4.3;72
54439;BME280;40347;53.848;27.498;2023-01-15T04:26:15;1011.4;;;4.3;71.7
54439;BME280;40347;53.848;27.498;2023-01-15T04:31:03;1011.5;;;4.3;71.6
54439;BME280;40347;53.848;27.498;2023-01-15T04:36:15;1011.6;;;4.3;71.7
54439;BME280;40347;53.848;27.498;2023-01-15T04:41:11;1011.6;;;4.3;71.8
54439;BME280;40347;53.848;27.498;2023-01-15T04:46:25;1011.6;;;4.3;71.9
54439;BME280;40347;53.848;27.498;2023-01-15T04:51:13;1011.8;;;4.2;71.8
54439;BME280;40347;53.848;27.498;2023-01-15T04:56:13;1011.9;;;4.3;71.8
54439;BME280;40347;53.848;27.498;2023-01-15T05:01:07;1011.8;;;4.2;71.9
54439;BME280;40347;53.848;27.498;2023-01-15T05:06:03;1011.6;;;4.3;72
54439;BME280;40347;53.848;27.498;2023-01-15T05:11:04;1011.5;;;4.3;72.1
54439;BME280;40347;53.848;27.498;2023-01-15T05:16:07;1011.4;;;4.3;72.1
54439;BME280;40347;53.848;27.498;2023-01-15T05:21:03;1011.4;;;4.2;72.1
54439;BME280;40347;53.848;27.498;2023-01-15T05:26:15;1011.3;;;4.2;72.1
54439;BME280;40347;53.848;27.498;2023-01-15T05:31:05;1011.2;;;4.2;72.2
54439;BME280;40347;53.848;27.498;2023-01-15T05:36:12;1011.1;;;4.3;72.2
54439;BME280;40347;53.848;27.498;2023-01-15T05:41:03;1011.1;;;4.3;71.9
54439;BME280;40347;53.848;27.498;2023-01-15T05:46:23;1011;;;4.3;71.9
54439;BME280;40347;53.848;27.498;2023-01-15T05:51:11;1010.9;;;4.2;71.9
54439;BME280;40347;53.848;27.498;2023-01-15T05:56:23;1010.9;;;4.2;71.9
54439;BME280;40347;53.848;27.498;2023-01-15T06:01:05;1010.9;;;4.1;72.1
54439;BME280;40347;53.848;27.498;2023-01-15T06:06:23;1010.8;;;4.1;72
54439;BME280;40347;53.848;27.498;2023-01-15T06:11:03;1010.7;;;4.1;72
54439;BME280;40347;53.848;27.498;2023-01-15T06:16:03;1010.5;;;4;71.9
54439;BME280;40347;53.848;27.498;2023-01-15T06:21:11;1010.4;;;3.9;71.9
54439;BME280;40347;53.848;27.498;2023-01-15T06:26:04;1010.3;;;3.9;72.1
54439;BME280;40347;53.848;27.498;2023-01-15T06:31:12;1010.4;;;3.9;72.3
54439;BME280;40347;53.848;27.498;2023-01-15T06:36:26;1010.5;;;3.9;72.1
54439;BME280;40347;53.848;27.498;2023-01-15T06:41:04;1010.4;;;3.9;71.9
54439;BME280;40347;53.848;27.498;2023-01-15T06:46:03;1010.2;;;3.8;71.9
54439;BME280;40347;53.848;27.498;2023-01-15T06:51:23;1010.1;;;3.7;71.9
54439;BME280;40347;53.848;27.498;2023-01-15T06:56:03;1010.1;;;3.8;71.9
54439;BME280;40347;53.848;27.498;2023-01-15T07:01:15;1010.1;;;3.7;72
54439;BME280;40347;53.848;27.498;2023-01-15T07:06:11;1010.1;;;3.8;71.9
54439;BME280;40347;53.848;27.498;2023-01-15T07:11:15;1010;;;3.9;71.6
54439;BME280;40347;53.848;27.498;2023-01-15T07:16:11;1010;;;3.9;71.5
54439;BME280;40347;53.848;27.498;2023-01-15T07:21:03;1010;;;3.9;71.4
54439;BME280;40347;53.848;27.498;2023-01-15T07:26:23;1009.9;;;4;71.3
54439;BME280;40347;53.848;27.498;2023-01-15T07:31:03;1009.9;;;4;71.2
54439;BME280;40347;53.848;27.498;2023-01-15T07:36:23;1009.9;;;3.9;71.1
54439;BME280;40347;53.848;27.498;2023-01-15T07:41:13;1009.9;;;3.9;71.2
54439;BME280;40347;53.848;27.498;2023-01-15T07:46:15;1009.9;;;4;71.2
54439;BME280;40347;53.848;27.498;2023-01-15T07:51:11;1010;;;4;71.1
54439;BME280;40347;53.848;27.498;2023-01-15T07:56:27;1009.8;;;4.1;71
54439;BME280;40347;53.848;27.498;2023-01-15T08:01:11;1009.7;;;4;71
54439;BME280;40347;53.848;27.498;2023-01-15T08:06:23;1009.7;;;3.9;71.1
54439;BME280;40347;53.848;27.498;2023-01-15T08:11:19;1009.8;;;4;71.2
54439;BME280;40347;53.848;27.498;2023-01-15T08:16:03;1009.6;;;4;71.1
54439;BME280;40347;53.848;27.498;2023-01-15T08:21:03;1009.4;;;3.9;71.2
54439;BME280;40347;53.848;27.498;2023-01-15T08:26:23;1009.4;;;3.9;71.2
54439;BME280;40347;53.848;27.498;2023-01-15T08:31:04;1009.3;;;3.9;71.2
54439;BME280;40347;53.848;27.498;2023-01-15T08:36:33;1009.2;;;3.9;71.2
54439;BME280;40347;53.848;27.498;2023-01-15T08:41:13;1009;;;3.9;71.3
54439;BME280;40347;53.848;27.498;2023-01-15T08:46:11;1009;;;3.9;71.3
54439;BME280;40347;53.848;27.498;2023-01-15T08:51:15;1008.9;;;3.9;71.4
54439;BME280;40347;53.848;27.498;2023-01-15T08:56:19;1008.9;;;3.9;71.4
54439;BME280;40347;53.848;27.498;2023-01-15T09:01:27;1009.2;;;4;71.4
54439;BME280;40347;53.848;27.498;2023-01-15T09:06:11;1009.8;;;4;71.3
54439;BME280;40347;53.848;27.498;2023-01-15T09:11:13;1009.6;;;4;71.3
54439;BME280;40347;53.848;27.498;2023-01-15T09:16:17;1009.3;;;4.1;71.2
54439;BME280;40347;53.848;27.498;2023-01-15T09:21:23;1009;;;4.2;71.2
54439;BME280;40347;53.848;27.498;2023-01-15T09:26:25;1008.9;;;4.3;71
54439;BME280;40347;53.848;27.498;2023-01-15T09:31:11;1008.9;;;4.4;70.8
54439;BME280;40347;53.848;27.498;2023-01-15T09:36:03;1008.8;;;4.5;70.6
54439;BME280;40347;53.848;27.498;2023-01-15T09:41:11;1008.3;;;4.6;70.4
54439;BME280;40347;53.848;27.498;2023-01-15T09:46:03;1007.9;;;4.5;70
54439;BME280;40347;53.848;27.498;2023-01-15T09:51:07;1007.7;;;4.3;70.2
54439;BME280;40347;53.848;27.498;2023-01-15T09:56:17;1007.6;;;4.2;70.7
54439;BME280;40347;53.848;27.498;2023-01-15T10:01:12;1007.6;;;4.3;70.9
54439;BME280;40347;53.848;27.498;2023-01-15T10:06:16;1007.6;;;4.2;70.8
54439;BME280;40347;53.848;27.498;2023-01-15T10:11:04;1007.6;;;4.2;71
54439;BME280;40347;53.848;27.498;2023-01-15T10:16:03;1007.7;;;4.3;71
54439;BME280;40347;53.848;27.498;2023-01-15T10:21:09;1007.7;;;4.4;71.1
54439;BME280;40347;53.848;27.498;2023-01-15T10:26:28;1007.6;;;4.5;70.9
54439;BME280;40347;53.848;27.498;2023-01-15T10:31:05;1007.6;;;4.7;70.6
54439;BME280;40347;53.848;27.498;2023-01-15T10:36:27;1007.6;;;4.6;70.5
54439;BME280;40347;53.848;27.498;2023-01-15T10:41:17;1007.5;;;4.7;70.4
54439;BME280;40347;53.848;27.498;2023-01-15T10:46:06;1007.3;;;4.6;70.4
54439;BME280;40347;53.848;27.498;2023-01-15T10:51:14;1007.3;;;4.6;70.6
54439;BME280;40347;53.848;27.498;2023-01-15T10:56:27;1007.2;;;4.7;70.6
54439;BME280;40347;53.848;27.498;2023-01-15T11:01:04;1007.1;;;4.8;70.4
54439;BME280;40347;53.848;27.498;2023-01-15T11:06:16;1007;;;4.8;70.6
54439;BME280;40347;53.848;27.498;2023-01-15T11:11:15;1006.7;;;4.8;70.4
54439;BME280;40347;53.848;27.498;2023-01-15T11:16:03;1006.7;;;4.8;70.4
54439;BME280;40347;53.848;27.498;2023-01-15T11:21:08;1006.5;;;4.9;70.3
54439;BME280;40347;53.848;27.498;2023-01-15T11:26:24;1006.4;;;4.9;70.2
54439;BME280;40347;53.848;27.498;2023-01-15T11:31:03;1006.2;;;4.9;70.3
54439;BME280;40347;53.848;27.498;2023-01-15T11:36:04;1006.2;;;4.8;70.4
54439;BME280;40347;53.848;27.498;2023-01-15T11:41:34;1006.2;;;4.7;70.4
54439;BME280;40347;53.848;27.498;2023-01-15T11:46:22;1006.2;;;4.6;70.6
54439;BME280;40347;53.848;27.498;2023-01-15T11:51:23;1006.2;;;4.6;70.8
54439;BME280;40347;53.848;27.498;2023-01-15T11:56:18;1006.1;;;4.5;70.9
54439;BME280;40347;53.848;27.498;2023-01-15T12:01:19;1006;;;4.5;71
54439;BME280;40347;53.848;27.498;2023-01-15T12:06:11;1006;;;4.4;71.1
54439;BME280;40347;53.848;27.498;2023-01-15T12:11:04;1005.9;;;4.3;71.2
54439;BME280;40347;53.848;27.498;2023-01-15T12:16:04;1005.9;;;4.3;71.3
54439;BME280;40347;53.848;27.498;2023-01-15T12:21:15;1006;;;4.4;71.3
54439;BME280;40347;53.848;27.498;2023-01-15T12:26:04;1006;;;4.3;71.2
54439;BME280;40347;53.848;27.498;2023-01-15T12:31:26;1006.1;;;4.2;71.2
54439;BME280;40347;53.848;27.498;2023-01-15T12:36:14;1005.9;;;4.2;71.3
54439;BME280;40347;53.848;27.498;2023-01-15T12:41:06;1005.8;;;4.1;71.3
54439;BME280;40347;53.848;27.498;2023-01-15T12:46:03;1005.8;;;4.1;71.3
54439;BME280;40347;53.848;27.498;2023-01-15T12:51:13;1005.7;;;4.2;71.3
54439;BME280;40347;53.848;27.498;2023-01-15T12:56:27;1005.7;;;4.2;71.2
54439;BME280;40347;53.848;27.498;2023-01-15T13:01:14;1005.7;;;4.1;71.2
54439;BME280;40347;53.848;27.498;2023-01-15T13:06:03;1005.8;;;4.1;71.2
54439;BME280;40347;53.848;27.498;2023-01-15T13:11:11;1005.7;;;4.1;71.2
54439;BME280;40347;53.848;27.498;2023-01-15T13:16:07;1005.7;;;4.1;71.3
54439;BME280;40347;53.848;27.498;2023-01-15T13:21:14;1005.6;;;4.2;71.1
54439;BME280;40347;53.848;27.498;2023-01-15T13:26:17;1005.6;;;4.2;71
54439;BME280;40347;53.848;27.498;2023-01-15T13:31:06;1005.7;;;4.1;70.9
54439;BME280;40347;53.848;27.498;2023-01-15T13:36:13;1005.8;;;4.1;71
54439;BME280;40347;53.848;27.498;2023-01-15T13:41:16;1005.7;;;4.2;71.2
54439;BME280;40347;53.848;27.498;2023-01-15T13:46:04;1005.5;;;4.2;71.1
54439;BME280;40347;53.848;27.498;2023-01-15T13:51:03;1005.5;;;4.2;70.9
54439;BME280;40347;53.848;27.498;2023-01-15T13:56:03;1005.6;;;4.2;70.8
54439;BME280;40347;53.848;27.498;2023-01-15T14:01:04;1005.5;;;4.2;70.8
54439;BME280;40347;53.848;27.498;2023-01-15T14:06:36;1005.5;;;4.2;70.9
54439;BME280;40347;53.848;27.498;2023-01-15T14:11:03;1005.6;;;4.1;71.1
54439;BME280;40347;53.848;27.498;2023-01-15T14:16:16;1005.5;;;4.1;71.2
54439;BME280;40347;53.848;27.498;2023-01-15T14:21:18;1005.4;;;4.1;71.1
54439;BME280;40347;53.848;27.498;2023-01-15T14:26:13;1005.3;;;4.1;71.1
54439;BME280;40347;53.848;27.498;2023-01-15T14:31:13;1005.4;;;4;71.2
54439;BME280;40347;53.848;27.498;2023-01-15T14:36:16;1005.2;;;4.1;71.2
54439;BME280;40347;53.848;27.498;2023-01-15T14:41:04;1005.1;;;4.2;70.9
54439;BME280;40347;53.848;27.498;2023-01-15T14:46:13;1005;;;4.3;70.9
54439;BME280;40347;53.848;27.498;2023-01-15T14:51:06;1004.9;;;4.2;70.8
54439;BME280;40347;53.848;27.498;2023-01-15T14:56:15;1005;;;4.2;70.8
54439;BME280;40347;53.848;27.498;2023-01-15T15:01:13;1005.1;;;4.3;70.7
54439;BME280;40347;53.848;27.498;2023-01-15T15:06:27;1005.1;;;4.3;70.6
54439;BME280;40347;53.848;27.498;2023-01-15T15:11:03;1005;;;4.3;70.6
54439;BME280;40347;53.848;27.498;2023-01-15T15:16:26;1005;;;4.3;70.5
54439;BME280;40347;53.848;27.498;2023-01-15T15:21:17;1004.9;;;4.3;70.5
54439;BME280;40347;53.848;27.498;2023-01-15T15:26:04;1004.8;;;4.3;70.5
54439;BME280;40347;53.848;27.498;2023-01-15T15:31:03;1004.8;;;4.2;70.7
54439;BME280;40347;53.848;27.498;2023-01-15T15:36:35;1004.5;;;4.2;70.8
54439;BME280;40347;53.848;27.498;2023-01-15T15:41:15;1004.7;;;4.2;70.9
54439;BME280;40347;53.848;27.498;2023-01-15T15:46:03;1004.9;;;4.2;71
54439;BME280;40347;53.848;27.498;2023-01-15T15:51:03;1004.9;;;4.3;70.9
54439;BME280;40347;53.848;27.498;2023-01-15T15:56:03;1005;;;4.2;70.9
54439;BME280;40347;53.848;27.498;2023-01-15T16:01:27;1005;;;4.2;70.9
54439;BME280;40347;53.848;27.498;2023-01-15T16:06:04;1005;;;4.1;70.8
54439;BME280;40347;53.848;27.498;2023-01-15T16:11:13;1005;;;4.2;70.9
54439;BME280;40347;53.848;27.498;2023-01-15T16:16:03;1004.9;;;4.1;70.9
54439;BME280;40347;53.848;27.498;2023-01-15T16:21:26;1004.9;;;4.2;70.8
54439;BME280;40347;53.848;27.498;2023-01-15T16:26:16;1004.8;;;4.3;70.6
54439;BME280;40347;53.848;27.498;2023-01-15T16:31:21;1004.7;;;4.2;70.5
54439;BME280;40347;53.848;27.498;2023-01-15T16:36:27;1004.6;;;4.1;70.6
54439;BME280;40347;53.848;27.498;2023-01-15T16:41:24;1004.6;;;4.2;70.7
54439;BME280;40347;53.848;27.498;2023-01-15T16:46:21;1004.6;;;4.2;70.6
54439;BME280;40347;53.848;27.498;2023-01-15T16:51:30;1004.6;;;4.3;70.5
54439;BME280;40347;53.848;27.498;2023-01-15T16:56:03;1004.6;;;4.3;70.3
54439;BME280;40347;53.848;27.498;2023-01-15T17:01:45;1004.6;;;4.2;70.3
54439;BME280;40347;53.848;27.498;2023-01-15T17:06:11;1004.5;;;4.2;70.4
54439;BME280;40347;53.848;27.498;2023-01-15T17:11:24;1004.5;;;4.2;70.5
54439;BME280;40347;53.848;27.498;2023-01-15T17:16:15;1004.5;;;4.1;70.6
54439;BME280;40347;53.848;27.498;2023-01-15T17:21:03;1004.5;;;4.1;70.6
54439;BME280;40347;53.848;27.498;2023-01-15T17:26:04;1004.5;;;4.1;70.6
54439;BME280;40347;53.848;27.498;2023-01-15T17:31:35;1004.5;;;4;70.8
54439;BME280;40347;53.848;27.498;2023-01-15T17:36:13;1004.4;;;4;70.9
54439;BME280;40347;53.848;27.498;2023-01-15T17:41:23;1004.4;;;3.9;71
54439;BME280;40347;53.848;27.498;2023-01-15T17:46:25;1004.3;;;3.8;71.5
54439;BME280;40347;53.848;27.498;2023-01-15T17:51:04;1004.3;;;3.8;71.5
54439;BME280;40347;53.848;27.498;2023-01-15T17:56:15;1004.3;;;3.7;71.7
54439;BME280;40347;53.848;27.498;2023-01-15T18:01:05;1004.2;;;3.6;71.9
54439;BME280;40347;53.848;27.498;2023-01-15T18:06:25;1004.2;;;3.6;72
54439;BME280;40347;53.848;27.498;2023-01-15T18:11:23;1004.2;;;3.6;72.3
54439;BME280;40347;53.848;27.498;2023-01-15T18:16:03;1004.2;;;3.5;72.5
54439;BME280;40347;53.848;27.498;2023-01-15T18:21:14;1004.1;;;3.4;72.6
54439;BME280;40347;53.848;27.498;2023-01-15T18:26:13;1004.1;;;3.4;73.1
54439;BME280;40347;53.848;27.498;2023-01-15T18:31:13;1004;;;3.4;73.3
54439;BME280;40347;53.848;27.498;2023-01-15T18:36:04;1004;;;3.3;73.3
54439;BME280;40347;53.848;27.498;2023-01-15T18:41:39;1003.9;;;3.3;73.4
54439;BME280;40347;53.848;27.498;2023-01-15T18:46:13;1003.9;;;3.2;73.5
54439;BME280;40347;53.848;27.498;2023-01-15T18:51:13;1003.8;;;3;73.6
54439;BME280;40347;53.848;27.498;2023-01-15T18:56:23;1003.7;;;2.9;74
54439;BME280;40347;53.848;27.498;2023-01-15T19:01:13;1003.7;;;2.8;74.5
54439;BME280;40347;53.848;27.498;2023-01-15T19:06:05;1003.6;;;2.9;74.6
54439;BME280;40347;53.848;27.498;2023-01-15T19:11:08;1003.6;;;2.9;74.6
54439;BME280;40347;53.848;27.498;2023-01-15T19:16:13;1003.5;;;2.8;74.5
54439;BME280;40347;53.848;27.498;2023-01-15T19:21:13;1003.5;;;2.8;74.4
54439;BME280;40347;53.848;27.498;2023-01-15T19:26:03;1003.5;;;2.8;74.8
54439;BME280;40347;53.848;27.498;2023-01-15T19:31:13;1003.5;;;2.9;75.2
54439;BME280;40347;53.848;27.498;2023-01-15T19:36:15;1003.4;;;2.9;75.2
54439;BME280;40347;53.848;27.498;2023-01-15T19:41:11;1003.4;;;2.9;75.1
54439;BME280;40347;53.848;27.498;2023-01-15T19:46:27;1003.4;;;3;75
54439;BME280;40347;53.848;27.498;2023-01-15T19:51:11;1003.4;;;3;74.8
54439;BME280;40347;53.848;27.498;2023-01-15T19:56:15;1003.4;;;3;74.6
54439;BME280;40347;53.848;27.498;2023-01-15T20:01:03;1003.3;;;2.9;74.9
54439;BME280;40347;53.848;27.498;2023-01-15T20:06:37;1003.4;;;2.9;75
54439;BME280;40347;53.848;27.498;2023-01-15T20:11:06;1003.3;;;3;74.9
54439;BME280;40347;53.848;27.498;2023-01-15T20:16:25;1003.4;;;3;75.1
54439;BME280;40347;53.848;27.498;2023-01-15T20:21:11;1003.5;;;3.1;75.1
54439;BME280;40347;53.848;27.498;2023-01-15T20:26:12;1003.5;;;3.1;74.8
54439;BME280;40347;53.848;27.498;2023-01-15T20:31:16;1003.6;;;3.1;74.6
54439;BME280;40347;53.848;27.498;2023-01-15T20:36:03;1003.6;;;2.9;74.7
54439;BME280;40347;53.848;27.498;2023-01-15T20:41:15;1003.6;;;2.9;75
54439;BME280;40347;53.848;27.498;2023-01-15T20:46:17;1003.6;;;2.9;75.1
54439;BME280;40347;53.848;27.498;2023-01-15T20:51:27;1003.6;;;2.8;75.4
54439;BME280;40347;53.848;27.498;2023-01-15T20:56:09;1003.6;;;2.9;75.5
54439;BME280;40347;53.848;27.498;2023-01-15T21:01:27;1003.6;;;2.8;75.4
54439;BME280;40347;53.848;27.498;2023-01-15T21:06:03;1003.6;;;2.8;75.5
54439;BME280;40347;53.848;27.498;2023-01-15T21:11:03;1003.6;;;2.7;75.4
54439;BME280;40347;53.848;27.498;2023-01-15T21:16:03;1003.6;;;2.7;75.8
54439;BME280;40347;53.848;27.498;2023-01-15T21:21:12;1003.6;;;2.7;75.8
54439;BME280;40347;53.848;27.498;2023-01-15T21:26:25;1003.6;;;2.6;75.8
54439;BME280;40347;53.848;27.498;2023-01-15T21:31:05;1003.6;;;2.5;76
54439;BME280;40347;53.848;27.498;2023-01-15T21:36:25;1003.6;;;2.4;76.2
54439;BME280;40347;53.848;27.498;2023-01-15T21:41:12;1003.6;;;2.4;76.4
54439;BME280;40347;53.848;27.498;2023-01-15T21:46:03;1003.6;;;2.4;76.1
54439;BME280;40347;53.848;27.498;2023-01-15T21:51:03;1003.6;;;2.3;76.3
54439;BME280;40347;53.848;27.498;2023-01-15T21:56:27;1003.5;;;2.3;76.4
54439;BME280;40347;53.848;27.498;2023-01-15T22:01:06;1003.4;;;2.2;76.7
54439;BME280;40347;53.848;27.498;2023-01-15T22:06:03;1003.4;;;2.2;76.7
54439;BME280;40347;53.848;27.498;2023-01-15T22:11:13;1003.3;;;2.3;77
54439;BME280;40347;53.848;27.498;2023-01-15T22:16:03;1003.3;;;2.4;77.2
54439;BME280;40347;53.848;27.498;2023-01-15T22:21:15;1003.2;;;2.4;77.3
54439;BME280;40347;53.848;27.498;2023-01-15T22:26:23;1003.2;;;2.3;77.2
54439;BME280;40347;53.848;27.498;2023-01-15T22:31:15;1003.1;;;2.3;77.4
54439;BME280;40347;53.848;27.498;2023-01-15T22:36:13;1003.1;;;2.4;77.3
54439;BME280;40347;53.848;27.498;2023-01-15T22:41:03;1003.1;;;2.3;77.3
54439;BME280;40347;53.848;27.498;2023-01-15T22:46:27;1003.1;;;2.2;77.3
54439;BME280;40347;53.848;27.498;2023-01-15T22:51:15;1003.1;;;2.1;77.4
54439;BME280;40347;53.848;27.498;2023-01-15T22:56:13;1003.1;;;2.1;77.4
54439;BME280;40347;53.848;27.498;2023-01-15T23:01:03;1003;;;2.2;77.7
54439;BME280;40347;53.848;27.498;2023-01-15T23:06:23;1003;;;2.3;77.9
54439;BME280;40347;53.848;27.498;2023-01-15T23:11:12;1003;;;2.3;77.8
54439;BME280;40347;53.848;27.498;2023-01-15T23:16:03;1003;;;2.3;77.7
54439;BME280;40347;53.848;27.498;2023-01-15T23:21:24;1002.9;;;2.3;78
54439;BME280;40347;53.848;27.498;2023-01-15T23:26:14;1002.9;;;2.3;78.1
54439;BME280;40347;53.848;27.498;2023-01-15T23:31:25;1002.9;;;2.3;77.9
54439;BME280;40347;53.848;27.498;2023-01-15T23:36:13;1002.9;;;2.3;78
54439;BME280;40347;53.848;27.498;2023-01-15T23:41:25;1002.8;;;2.3;78.1
54439;BME280;40347;53.848;27.498;2023-01-15T23:46:13;1002.7;;;2.2;77.9
54439;BME280;40347;53.848;27.498;2023-01-15T23:51:25;1002.8;;;2.2;78
54439;BME280;40347;53.848;27.498;2023-01-15T23:56:21;1002.7;;;2.3;78.2
